createdAt,value
2023-01-03T00:00:53.525Z,99.90
2023-01-03T00:03:36.526Z,99.90
2023-01-03T00:06:04.118Z,99.90
2023-01-03T00:08:31.643Z,99.90
2023-01-03T00:10:58.710Z,99.90
2023-01-03T00:13:28.880Z,99.90
2023-01-03T00:15:56.303Z,99.90
2023-01-03T00:18:23.669Z,99.90
2023-01-03T00:20:51.046Z,99.90
2023-01-03T00:23:18.488Z,99.90
2023-01-03T00:25:47.936Z,99.90
2023-01-03T00:28:15.780Z,99.90
2023-01-03T00:30:42.967Z,99.90
2023-01-03T00:33:10.523Z,99.90
2023-01-03T00:35:37.867Z,99.90
2023-01-03T00:38:05.249Z,99.90
2023-01-03T00:40:32.353Z,99.90
2023-01-03T00:43:02.188Z,99.90
2023-01-03T00:45:35.046Z,99.90
2023-01-03T00:48:02.994Z,99.90
2023-01-03T00:50:30.159Z,99.90
2023-01-03T00:52:57.512Z,99.90
2023-01-03T00:55:24.778Z,99.90
2023-01-03T00:57:54.632Z,99.90
2023-01-03T01:00:24.141Z,99.90
2023-01-03T01:02:56.351Z,99.90
2023-01-03T01:05:23.797Z,99.90
2023-01-03T01:07:51.182Z,99.90
2023-01-03T01:10:18.423Z,99.90
2023-01-03T01:12:46.794Z,99.90
2023-01-03T01:15:16.426Z,99.90
2023-01-03T01:17:43.951Z,99.90
2023-01-03T01:20:11.019Z,99.90
2023-01-03T01:22:40.860Z,99.90
2023-01-03T01:25:10.461Z,99.90
2023-01-03T01:27:38.000Z,99.90
2023-01-03T01:30:07.725Z,99.90
2023-01-03T01:32:35.463Z,99.90
2023-01-03T01:35:03.004Z,99.90
2023-01-03T01:37:30.366Z,99.90
2023-01-03T01:39:57.555Z,99.90
2023-01-03T01:42:30.397Z,99.90
2023-01-03T01:45:00.972Z,99.90
2023-01-03T01:48:01.912Z,99.90
2023-01-03T01:50:40.040Z,99.90
2023-01-03T01:53:18.159Z,99.90
2023-01-03T01:56:07.936Z,99.90
2023-01-03T01:58:42.332Z,99.90
2023-01-03T02:01:17.696Z,99.90
2023-01-03T02:03:56.474Z,99.90
2023-01-03T02:06:29.607Z,99.90
2023-01-03T02:09:00.084Z,99.90
2023-01-03T02:11:42.457Z,99.90
2023-01-03T02:14:40.627Z,99.90
2023-01-03T02:17:23.139Z,99.90
2023-01-03T02:19:56.734Z,99.90
2023-01-03T02:22:26.687Z,99.90
2023-01-03T02:25:15.807Z,99.90
2023-01-03T02:28:01.791Z,99.90
2023-01-03T02:30:41.244Z,99.90
2023-01-03T02:33:24.314Z,99.90
2023-01-03T02:36:10.229Z,99.90
2023-01-03T02:38:47.958Z,99.90
2023-01-03T02:41:33.802Z,99.90
2023-01-03T02:44:22.639Z,99.90
2023-01-03T02:46:52.344Z,99.90
2023-01-03T02:49:30.291Z,99.90
2023-01-03T02:52:05.298Z,99.90
2023-01-03T02:54:58.448Z,99.90
2023-01-03T02:57:34.175Z,99.90
2023-01-03T03:00:14.860Z,99.90
2023-01-03T03:02:47.511Z,99.90
2023-01-03T03:05:25.590Z,99.90
2023-01-03T03:07:54.589Z,99.90
2023-01-03T03:10:22.569Z,99.90
2023-01-03T03:12:53.747Z,99.90
2023-01-03T03:15:24.033Z,99.90
2023-01-03T03:18:02.354Z,99.90
2023-01-03T03:20:29.475Z,99.90
2023-01-03T03:23:05.879Z,99.90
2023-01-03T03:25:44.840Z,99.90
2023-01-03T03:28:21.864Z,99.90
2023-01-03T03:30:54.564Z,99.90
2023-01-03T03:33:24.701Z,99.90
2023-01-03T03:36:02.694Z,99.90
2023-01-03T03:38:44.456Z,99.90
2023-01-03T03:41:33.315Z,99.90
2023-01-03T03:44:38.314Z,99.90
2023-01-03T03:47:19.539Z,99.90
2023-01-03T03:49:51.381Z,99.90
2023-01-03T03:52:25.394Z,99.90
2023-01-03T03:55:10.918Z,99.90
2023-01-03T03:57:52.574Z,99.90
2023-01-03T04:00:28.229Z,99.90
2023-01-03T04:02:57.100Z,99.90
2023-01-03T04:05:27.756Z,99.90
2023-01-03T04:07:54.837Z,99.90
2023-01-03T04:10:23.335Z,99.90
2023-01-03T04:12:53.788Z,99.90
2023-01-03T04:15:21.192Z,99.90
2023-01-03T04:17:51.098Z,99.90
2023-01-03T04:20:18.544Z,99.90
2023-01-03T04:22:45.632Z,99.90
2023-01-03T04:25:15.547Z,99.90
2023-01-03T04:27:42.802Z,99.90
2023-01-03T04:30:10.804Z,99.90
2023-01-03T04:32:40.327Z,99.90
2023-01-03T04:35:08.128Z,99.90
2023-01-03T04:37:35.242Z,99.90
2023-01-03T04:40:02.997Z,99.90
2023-01-03T04:42:30.109Z,99.90
2023-01-03T04:44:59.950Z,99.90
2023-01-03T04:47:27.233Z,99.90
2023-01-03T04:49:57.110Z,99.90
2023-01-03T04:52:24.206Z,99.90
2023-01-03T04:54:51.819Z,99.90
2023-01-03T04:57:18.946Z,99.90
2023-01-03T04:59:48.539Z,99.90
2023-01-03T05:02:18.313Z,99.90
2023-01-03T05:04:48.434Z,99.90
2023-01-03T05:07:15.612Z,99.90
2023-01-03T05:09:43.769Z,99.90
2023-01-03T05:12:10.865Z,99.90
2023-01-03T05:14:38.390Z,99.90
2023-01-03T05:17:05.630Z,99.90
2023-01-03T05:19:36.047Z,99.90
2023-01-03T05:22:08.450Z,99.90
2023-01-03T05:24:35.774Z,99.90
2023-01-03T05:27:05.539Z,99.90
2023-01-03T05:29:36.890Z,99.90
2023-01-03T05:32:07.081Z,99.90
2023-01-03T05:34:37.327Z,99.90
2023-01-03T05:37:06.566Z,99.90
2023-01-03T05:39:33.931Z,99.90
2023-01-03T05:42:01.307Z,99.90
2023-01-03T05:44:30.560Z,99.90
2023-01-03T05:47:02.351Z,99.90
2023-01-03T05:49:29.808Z,99.90
2023-01-03T05:52:01.593Z,99.90
2023-01-03T05:54:28.938Z,99.90
2023-01-03T05:56:56.320Z,99.90
2023-01-03T05:59:25.983Z,99.90
2023-01-03T06:01:55.727Z,99.90
2023-01-03T06:04:25.589Z,99.90
2023-01-03T06:06:52.801Z,99.90
2023-01-03T06:09:20.427Z,99.90
2023-01-03T06:11:49.709Z,99.90
2023-01-03T06:14:17.117Z,99.90
2023-01-03T06:16:44.370Z,99.90
2023-01-03T06:19:11.967Z,99.90
2023-01-03T06:21:39.281Z,99.90
2023-01-03T06:24:06.847Z,99.90
2023-01-03T06:26:34.213Z,99.90
2023-01-03T06:29:01.875Z,99.90
2023-01-03T06:31:31.588Z,99.90
2023-01-03T06:34:01.353Z,99.90
2023-01-03T06:36:28.493Z,99.90
2023-01-03T06:38:55.879Z,99.90
2023-01-03T06:41:23.062Z,99.90
2023-01-03T06:43:53.350Z,99.90
2023-01-03T06:46:20.518Z,99.90
2023-01-03T06:48:48.004Z,99.90
2023-01-03T06:51:18.321Z,99.90
2023-01-03T06:53:45.735Z,99.90
2023-01-03T06:56:13.026Z,99.90
2023-01-03T06:58:40.558Z,99.90
2023-01-03T07:01:07.856Z,99.90
2023-01-03T07:03:35.441Z,99.90
2023-01-03T07:06:02.540Z,99.90
2023-01-03T07:08:32.109Z,99.90
2023-01-03T07:10:59.426Z,99.90
2023-01-03T07:13:26.817Z,99.90
2023-01-03T07:15:53.948Z,99.90
2023-01-03T07:18:21.680Z,99.90
2023-01-03T07:20:50.934Z,99.90
2023-01-03T07:23:18.416Z,99.90
2023-01-03T07:25:45.544Z,99.90
2023-01-03T07:28:15.106Z,99.90
2023-01-03T07:30:46.206Z,99.90
2023-01-03T07:33:17.541Z,99.90
2023-01-03T07:35:47.272Z,99.90
2023-01-03T07:38:17.274Z,99.90
2023-01-03T07:40:44.438Z,99.90
2023-01-03T07:43:12.376Z,99.90
2023-01-03T07:45:41.056Z,99.90
2023-01-03T07:48:11.045Z,99.90
2023-01-03T07:50:38.548Z,99.90
2023-01-03T07:53:09.769Z,99.90
2023-01-03T07:55:37.884Z,99.90
2023-01-03T07:58:05.342Z,99.90
2023-01-03T08:00:32.567Z,99.90
2023-01-03T08:03:07.747Z,99.90
2023-01-03T08:05:37.989Z,99.90
2023-01-03T08:08:06.486Z,99.90
2023-01-03T08:10:33.638Z,99.90
2023-01-03T08:13:03.659Z,99.90
2023-01-03T08:15:30.729Z,99.90
2023-01-03T08:17:58.082Z,99.90
2023-01-03T08:20:25.833Z,99.90
2023-01-03T08:22:53.356Z,99.90
2023-01-03T08:25:20.747Z,99.90
2023-01-03T08:27:50.346Z,99.90
2023-01-03T08:30:20.153Z,99.90
2023-01-03T08:32:47.696Z,99.90
2023-01-03T08:35:17.422Z,99.90
2023-01-03T08:37:46.535Z,99.90
2023-01-03T08:40:17.636Z,99.90
2023-01-03T08:42:46.240Z,99.90
2023-01-03T08:45:17.464Z,99.90
2023-01-03T08:47:46.319Z,99.90
2023-01-03T08:50:15.812Z,99.90
2023-01-03T08:52:43.256Z,99.90
2023-01-03T08:55:10.596Z,99.90
2023-01-03T08:57:40.320Z,99.90
2023-01-03T09:00:08.194Z,99.90
2023-01-03T09:02:40.217Z,99.90
2023-01-03T09:05:08.655Z,99.90
2023-01-03T09:07:36.068Z,99.90
2023-01-03T09:10:03.397Z,99.90
2023-01-03T09:12:30.826Z,99.90
2023-01-03T09:14:57.952Z,99.90
2023-01-03T09:17:28.473Z,96.70
2023-01-03T09:19:58.121Z,92.20
2023-01-03T09:22:25.721Z,87.90
2023-01-03T09:24:52.875Z,82.40
2023-01-03T09:27:22.703Z,81.20
2023-01-03T09:29:52.245Z,80.60
2023-01-03T09:32:19.660Z,80.90
2023-01-03T09:34:49.094Z,81.10
2023-01-03T09:37:16.611Z,83.00
2023-01-03T09:39:45.916Z,85.20
2023-01-03T09:42:24.148Z,87.00
2023-01-03T09:44:54.323Z,89.30
2023-01-03T09:47:25.228Z,90.10
2023-01-03T09:50:27.368Z,90.80
2023-01-03T09:52:45.412Z,91.50
2023-01-03T09:55:39.626Z,92.00
2023-01-03T09:58:17.236Z,92.50
2023-01-03T10:00:50.695Z,93.20
2023-01-03T10:03:27.546Z,94.10
2023-01-03T10:06:17.558Z,94.80
2023-01-03T10:09:03.403Z,95.00
2023-01-03T10:11:36.435Z,95.10
2023-01-03T10:14:34.416Z,95.20
2023-01-03T10:17:33.655Z,95.30
2023-01-03T10:20:12.729Z,95.60
2023-01-03T10:22:40.661Z,95.60
2023-01-03T10:25:13.091Z,95.20
2023-01-03T10:27:51.714Z,94.70
2023-01-03T10:30:27.469Z,93.90
2023-01-03T10:33:22.483Z,93.50
2023-01-03T10:35:52.493Z,92.80
2023-01-03T10:38:19.929Z,92.40
2023-01-03T10:41:01.971Z,92.40
2023-01-03T10:43:33.444Z,92.20
2023-01-03T10:46:06.427Z,92.40
2023-01-03T10:49:25.190Z,92.90
2023-01-03T10:51:42.895Z,93.10
2023-01-03T10:54:28.539Z,93.30
2023-01-03T10:57:01.902Z,93.50
2023-01-03T10:59:33.384Z,93.90
2023-01-03T11:02:09.685Z,94.00
2023-01-03T11:04:36.805Z,93.80
2023-01-03T11:07:10.500Z,94.00
2023-01-03T11:09:52.062Z,94.10
2023-01-03T11:12:30.057Z,94.20
2023-01-03T11:15:00.349Z,94.20
2023-01-03T11:17:31.276Z,94.60
2023-01-03T11:19:58.483Z,95.00
2023-01-03T11:22:46.313Z,95.10
2023-01-03T11:25:27.287Z,95.50
2023-01-03T11:28:28.655Z,95.30
2023-01-03T11:30:58.942Z,95.40
2023-01-03T11:33:29.856Z,95.10
2023-01-03T11:36:05.695Z,94.90
2023-01-03T11:38:41.829Z,95.10
2023-01-03T11:41:11.772Z,94.60
2023-01-03T11:44:13.508Z,94.50
2023-01-03T11:46:55.819Z,94.40
2023-01-03T11:49:26.485Z,94.60
2023-01-03T11:52:28.018Z,94.50
2023-01-03T11:55:24.985Z,94.50
2023-01-03T11:58:01.034Z,94.40
2023-01-03T12:00:41.352Z,94.40
2023-01-03T12:03:16.891Z,94.20
2023-01-03T12:06:06.296Z,93.90
2023-01-03T12:08:33.364Z,93.70
2023-01-03T12:11:21.160Z,93.80
2023-01-03T12:13:54.280Z,94.20
2023-01-03T12:16:51.235Z,94.60
2023-01-03T12:19:39.867Z,95.00
2023-01-03T12:22:21.212Z,95.30
2023-01-03T12:25:05.236Z,95.30
2023-01-03T12:27:37.386Z,95.40
2023-01-03T12:30:24.709Z,95.70
2023-01-03T12:33:44.663Z,95.60
2023-01-03T12:36:30.885Z,95.80
2023-01-03T12:39:33.543Z,95.50
2023-01-03T12:42:39.740Z,95.40
2023-01-03T12:45:28.385Z,95.80
2023-01-03T12:48:23.992Z,95.90
2023-01-03T12:50:55.051Z,96.20
2023-01-03T12:53:43.404Z,96.40
2023-01-03T12:56:35.696Z,96.20
2023-01-03T12:59:30.206Z,96.10
2023-01-03T13:02:01.226Z,96.10
2023-01-03T13:04:28.339Z,96.00
2023-01-03T13:07:13.669Z,95.90
2023-01-03T13:09:49.057Z,95.70
2023-01-03T13:12:22.721Z,95.50
2023-01-03T13:14:57.505Z,95.70
2023-01-03T13:17:30.651Z,95.60
2023-01-03T13:20:16.580Z,95.40
2023-01-03T13:22:55.158Z,95.70
2023-01-03T13:25:38.740Z,96.80
2023-01-03T13:28:07.555Z,97.00
2023-01-03T13:30:37.153Z,96.70
2023-01-03T13:33:04.449Z,97.10
2023-01-03T13:35:45.562Z,97.60
2023-01-03T13:38:33.021Z,98.10
2023-01-03T13:41:19.495Z,97.30
2023-01-03T13:43:51.599Z,97.30
2023-01-03T13:46:32.522Z,97.30
2023-01-03T13:49:07.878Z,97.20
2023-01-03T13:51:45.648Z,96.70
2023-01-03T13:54:13.039Z,95.90
2023-01-03T13:56:43.311Z,95.80
2023-01-03T13:59:19.693Z,95.60
2023-01-03T14:02:24.223Z,95.40
2023-01-03T14:05:11.297Z,95.40
2023-01-03T14:08:07.340Z,95.80
2023-01-03T14:10:58.083Z,96.10
2023-01-03T14:13:46.990Z,96.30
2023-01-03T14:16:28.349Z,96.60
2023-01-03T14:19:17.296Z,96.90
2023-01-03T14:21:55.803Z,97.50
2023-01-03T14:24:29.135Z,97.80
2023-01-03T14:27:03.780Z,98.20
2023-01-03T14:29:31.028Z,98.10
2023-01-03T14:31:58.486Z,98.30
2023-01-03T14:34:33.470Z,98.80
2023-01-03T14:37:05.338Z,98.90
2023-01-03T14:42:03.941Z,99.60
2023-01-03T14:44:34.862Z,99.80
2023-01-03T14:47:14.411Z,99.90
2023-01-03T14:49:47.757Z,99.90
2023-01-03T14:52:31.182Z,99.90
2023-01-03T14:55:06.344Z,99.90
2023-01-03T14:57:38.424Z,99.90
2023-01-03T15:00:08.262Z,99.90
2023-01-03T15:02:41.108Z,99.90
2023-01-03T15:05:33.189Z,99.90
2023-01-03T15:08:15.744Z,99.90
2023-01-03T15:10:54.338Z,99.90
2023-01-03T15:13:34.484Z,99.80
2023-01-03T15:16:04.666Z,99.70
2023-01-03T15:18:35.951Z,99.60
2023-01-03T15:21:06.054Z,99.50
2023-01-03T15:23:40.163Z,99.20
2023-01-03T15:26:08.079Z,99.20
2023-01-03T15:28:51.100Z,99.10
2023-01-03T15:31:28.523Z,98.90
2023-01-03T15:34:03.494Z,99.00
2023-01-03T15:36:32.347Z,99.10
2023-01-03T15:39:02.393Z,99.10
2023-01-03T15:41:31.992Z,99.10
2023-01-03T15:44:01.946Z,99.10
2023-01-03T15:46:29.422Z,99.20
2023-01-03T15:48:57.542Z,99.30
2023-01-03T15:51:24.607Z,99.50
2023-01-03T15:53:52.220Z,99.80
2023-01-03T15:56:21.008Z,99.70
2023-01-03T15:58:54.772Z,99.80
2023-01-03T16:01:23.504Z,99.90
2023-01-03T16:03:52.374Z,99.90
2023-01-03T16:06:19.532Z,99.90
2023-01-03T16:08:47.134Z,99.90
2023-01-03T16:11:20.659Z,99.90
2023-01-03T16:13:56.712Z,99.90
2023-01-03T16:16:36.188Z,99.90
2023-01-03T16:19:05.725Z,99.90
2023-01-03T16:21:33.495Z,99.90
2023-01-03T16:24:00.991Z,99.90
2023-01-03T16:26:28.407Z,99.90
2023-01-03T16:28:57.969Z,99.90
2023-01-03T16:31:33.693Z,99.90
2023-01-03T16:34:04.021Z,99.90
2023-01-03T16:36:38.993Z,99.90
2023-01-03T16:39:18.525Z,99.90
2023-01-03T16:41:46.642Z,99.90
2023-01-03T16:44:13.955Z,99.90
2023-01-03T16:46:41.054Z,99.90
2023-01-03T16:49:10.955Z,99.90
2023-01-03T16:51:47.237Z,99.90
2023-01-03T16:54:19.747Z,99.90
2023-01-03T16:56:46.926Z,99.90
2023-01-03T16:59:23.550Z,99.90
2023-01-03T17:01:50.746Z,99.90
2023-01-03T17:04:22.783Z,99.90
2023-01-03T17:06:49.887Z,99.90
2023-01-03T17:09:26.119Z,99.90
2023-01-03T17:11:53.508Z,99.90
2023-01-03T17:14:22.677Z,99.90
2023-01-03T17:16:50.397Z,99.90
2023-01-03T17:22:17.008Z,99.90
2023-01-03T17:24:45.219Z,99.90
2023-01-03T17:27:18.266Z,99.90
2023-01-03T17:29:50.480Z,99.90
2023-01-03T17:32:19.881Z,99.90
2023-01-03T17:34:47.839Z,99.90
2023-01-03T17:37:18.719Z,99.90
2023-01-03T17:39:54.215Z,99.90
2023-01-03T17:42:21.954Z,99.90
2023-01-03T17:44:55.750Z,99.90
2023-01-03T17:47:23.473Z,99.90
2023-01-03T17:49:50.821Z,99.90
2023-01-03T17:52:28.999Z,99.90
2023-01-03T17:54:59.499Z,99.90
2023-01-03T17:57:26.552Z,99.90
2023-01-03T17:59:54.072Z,99.90
2023-01-03T18:02:25.868Z,99.90
2023-01-03T18:07:41.883Z,99.90
2023-01-03T18:10:47.236Z,99.90
2023-01-03T18:13:37.025Z,99.90
2023-01-03T18:16:04.763Z,99.90
2023-01-03T18:18:32.809Z,99.90
2023-01-03T18:21:02.978Z,99.90
2023-01-03T18:23:37.470Z,99.90
2023-01-03T18:26:08.356Z,99.90
2023-01-03T18:28:35.922Z,99.90
2023-01-03T18:31:03.627Z,99.90
2023-01-03T18:33:30.915Z,99.90
2023-01-03T18:36:00.997Z,99.90
2023-01-03T18:38:35.496Z,99.90
2023-01-03T18:41:05.827Z,99.90
2023-01-03T18:43:33.924Z,99.90
2023-01-03T18:46:01.537Z,99.90
2023-01-03T18:48:31.396Z,99.90
2023-01-03T18:50:59.836Z,99.90
2023-01-03T18:53:30.691Z,99.90
2023-01-03T18:55:58.506Z,99.90
2023-01-03T18:58:34.235Z,99.90
2023-01-03T19:01:01.742Z,99.90
2023-01-03T19:03:31.382Z,99.90
2023-01-03T19:06:00.629Z,99.90
2023-01-03T19:08:33.454Z,99.90
2023-01-03T19:11:18.434Z,99.90
2023-01-03T19:13:50.965Z,99.90
2023-01-03T19:16:28.407Z,99.90
2023-01-03T19:18:58.706Z,99.90
2023-01-03T19:21:31.519Z,99.90
2023-01-03T19:23:58.654Z,99.90
2023-01-03T19:26:34.340Z,99.90
2023-01-03T19:29:04.554Z,99.90
2023-01-03T19:31:44.164Z,99.90
2023-01-03T19:34:21.572Z,99.90
2023-01-03T19:36:51.646Z,99.90
2023-01-03T19:39:24.683Z,99.90
2023-01-03T19:41:57.271Z,99.90
2023-01-03T19:44:25.400Z,99.90
2023-01-03T19:46:52.858Z,99.90
2023-01-03T19:49:22.893Z,99.90
2023-01-03T19:51:52.868Z,99.90
2023-01-03T19:54:23.031Z,99.90
2023-01-03T19:56:57.074Z,99.90
2023-01-03T19:59:36.037Z,99.90
2023-01-03T20:02:25.267Z,99.90
2023-01-03T20:04:53.298Z,99.90
2023-01-03T20:07:20.789Z,99.90
2023-01-03T20:09:47.845Z,99.90
2023-01-03T20:12:17.425Z,99.90
2023-01-03T20:14:50.713Z,99.90
2023-01-03T20:17:23.506Z,99.90
2023-01-03T20:19:53.560Z,99.90
2023-01-03T20:23:02.685Z,99.90
2023-01-03T20:25:30.384Z,99.90
2023-01-03T20:27:59.020Z,99.90
2023-01-03T20:30:28.216Z,99.90
2023-01-03T20:32:56.169Z,99.90
2023-01-03T20:38:13.498Z,99.90
2023-01-03T20:40:40.626Z,99.90
2023-01-03T20:43:13.953Z,99.90
2023-01-03T20:45:41.455Z,99.90
2023-01-03T20:48:25.169Z,99.90
2023-01-03T20:50:56.058Z,99.90
2023-01-03T20:53:27.443Z,99.90
2023-01-03T20:55:54.704Z,99.90
2023-01-03T20:58:25.440Z,99.90
2023-01-03T21:00:59.894Z,99.90
2023-01-03T21:03:32.828Z,99.90
2023-01-03T21:05:59.963Z,99.90
2023-01-03T21:08:27.432Z,99.90
2023-01-03T21:10:54.647Z,99.90
2023-01-03T21:13:22.458Z,99.90
2023-01-03T21:15:52.025Z,99.90
2023-01-03T21:18:19.597Z,99.90
2023-01-03T21:20:49.093Z,99.90
2023-01-03T21:23:21.838Z,99.90
2023-01-03T21:25:49.765Z,99.90
2023-01-03T21:28:17.203Z,99.90
2023-01-03T21:30:44.405Z,99.90
2023-01-03T21:33:18.881Z,99.90
2023-01-03T21:35:46.112Z,99.90
2023-01-03T21:38:13.709Z,99.90
2023-01-03T21:40:40.785Z,99.90
2023-01-03T21:43:10.010Z,99.90
2023-01-03T21:45:43.915Z,99.90
2023-01-03T21:48:15.695Z,99.90
2023-01-03T21:50:48.335Z,99.90
2023-01-03T21:53:17.119Z,99.90
2023-01-03T21:55:44.680Z,99.90
2023-01-03T21:58:16.577Z,99.90
2023-01-03T22:00:46.195Z,99.90
2023-01-03T22:03:17.507Z,99.90
2023-01-03T22:05:44.653Z,99.90
2023-01-03T22:08:14.433Z,99.90
2023-01-03T22:10:41.520Z,99.90
2023-01-03T22:13:10.093Z,99.90
2023-01-03T22:15:38.702Z,99.90
2023-01-03T22:18:06.352Z,99.90
2023-01-03T22:20:38.256Z,99.90
2023-01-03T22:23:06.638Z,99.90
2023-01-03T22:25:36.422Z,99.90
2023-01-03T22:28:04.089Z,99.90
2023-01-03T22:30:31.204Z,99.90
2023-01-03T22:32:58.726Z,99.90
2023-01-03T22:35:25.853Z,99.90
2023-01-03T22:37:55.935Z,99.90
2023-01-03T22:40:23.200Z,99.90
2023-01-03T22:42:53.013Z,99.90
2023-01-03T22:45:20.058Z,99.90
2023-01-03T22:47:47.503Z,99.90
2023-01-03T22:50:14.571Z,99.90
2023-01-03T22:52:44.163Z,99.90
2023-01-03T22:55:14.014Z,99.90
2023-01-03T22:57:41.321Z,99.90
2023-01-03T23:00:08.967Z,99.90
2023-01-03T23:02:41.802Z,99.90
2023-01-03T23:05:09.527Z,99.90
2023-01-03T23:07:39.435Z,99.90
2023-01-03T23:10:07.176Z,99.90
2023-01-03T23:12:34.524Z,99.90
2023-01-03T23:15:02.225Z,99.90
2023-01-03T23:17:29.602Z,99.90
2023-01-03T23:19:59.239Z,99.90
2023-01-03T23:22:29.169Z,99.90
2023-01-03T23:24:56.244Z,99.90
2023-01-03T23:27:24.352Z,99.90
2023-01-03T23:29:51.404Z,99.90
2023-01-03T23:32:18.755Z,99.90
2023-01-03T23:34:45.844Z,99.90
2023-01-03T23:37:15.920Z,99.90
2023-01-03T23:39:42.977Z,99.90
2023-01-03T23:42:10.707Z,99.90
2023-01-03T23:44:40.010Z,99.90
2023-01-03T23:47:12.063Z,99.90
2023-01-03T23:49:42.530Z,99.90
2023-01-03T23:52:12.167Z,99.90
2023-01-03T23:54:39.311Z,99.90
2023-01-03T23:57:09.810Z,99.90
2023-01-03T23:59:36.844Z,99.90
